Time;durP1;ratioP1;P1;durP2;ratioP2;P2;SDS_P1;SDS_P2;PMS_P1;PMS_P2;Temp;Humidity;BMP_temperature;BMP_pressure;BME280_temperature;BME280_humidity;BME280_pressure;Samples;Min_cycle;Max_cycle;Signal;HPM_P1;HPM_P2
2024/03/17 00:00:36;;;;;;;6.30;4.20;;;7.10;98.60;;;;;;2090540;28;20025;-63
2024/03/17 00:01:37;;;;;;;7.97;4.20;;;7.10;98.60;;;;;;2091225;28;20040;-66
2024/03/17 00:02:38;;;;;;;7.63;4.80;;;7.10;98.60;;;;;;2094109;28;20029;-63
2024/03/17 00:03:38;;;;;;;6.38;4.28;;;7.10;98.70;;;;;;2090086;28;20040;-63
2024/03/17 00:04:39;;;;;;;7.03;4.50;;;7.10;98.80;;;;;;2090847;28;20081;-64
2024/03/17 00:05:40;;;;;;;7.28;4.25;;;7.10;98.80;;;;;;2091597;28;20032;-65
2024/03/17 00:06:40;;;;;;;6.55;4.75;;;7.10;98.80;;;;;;2091395;28;20028;-64
2024/03/17 00:07:41;;;;;;;7.95;4.28;;;7.10;98.80;;;;;;2092978;28;20021;-63
2024/03/17 00:08:42;;;;;;;9.68;5.35;;;7.00;98.80;;;;;;2091696;28;20415;-63
2024/03/17 00:09:42;;;;;;;6.30;4.00;;;7.00;99.20;;;;;;2090428;28;20028;-63
2024/03/17 00:10:43;;;;;;;6.13;4.70;;;7.00;99.00;;;;;;2093866;28;20047;-63
2024/03/17 00:11:46;;;;;;;4.97;4.18;;;7.00;99.00;;;;;;2092475;28;20021;-65
2024/03/17 00:12:47;;;;;;;9.60;4.65;;;7.00;99.10;;;;;;2089222;28;20036;-65
2024/03/17 00:13:47;;;;;;;8.88;4.22;;;7.00;99.10;;;;;;2093366;28;20029;-64
2024/03/17 00:14:48;;;;;;;6.75;4.72;;;7.00;99.20;;;;;;2093013;28;20093;-63
2024/03/17 00:15:49;;;;;;;6.93;4.60;;;7.00;99.20;;;;;;2092501;28;20028;-65
2024/03/17 00:16:50;;;;;;;7.03;4.18;;;7.00;99.20;;;;;;2090476;28;20025;-64
2024/03/17 00:17:50;;;;;;;6.47;4.22;;;7.00;99.30;;;;;;2091662;28;20031;-66
2024/03/17 00:18:55;;;;;;;5.65;3.90;;;6.90;99.20;;;;;;2091875;28;20028;-64
2024/03/17 00:19:56;;;;;;;7.03;4.47;;;7.00;99.30;;;;;;2092871;28;20035;-65
2024/03/17 00:20:57;;;;;;;6.07;4.03;;;7.00;99.30;;;;;;2091719;28;20618;-65
2024/03/17 00:21:57;;;;;;;5.22;3.47;;;6.90;99.20;;;;;;2092063;28;20442;-64
2024/03/17 00:22:58;;;;;;;5.97;4.18;;;6.90;99.20;;;;;;2091298;28;20036;-64
2024/03/17 00:23:58;;;;;;;7.30;4.28;;;6.90;99.20;;;;;;2092681;28;20651;-64
2024/03/17 00:24:59;;;;;;;6.93;4.18;;;6.90;99.30;;;;;;2090768;28;20713;-64
2024/03/17 00:26:00;;;;;;;9.00;4.80;;;6.90;99.30;;;;;;2089645;28;20025;-62
2024/03/17 00:27:01;;;;;;;6.38;4.47;;;6.90;99.30;;;;;;2093163;28;20025;-66
2024/03/17 00:28:02;;;;;;;5.38;4.82;;;6.90;99.40;;;;;;2093067;28;20149;-65
2024/03/17 00:29:03;;;;;;;6.45;5.00;;;6.90;99.30;;;;;;2090964;28;20029;-63
2024/03/17 00:30:12;;;;;;;6.13;4.38;;;6.90;99.30;;;;;;2092354;28;20449;-63
2024/03/17 00:31:14;;;;;;;5.10;4.10;;;6.90;99.50;;;;;;2091160;28;20546;-63
2024/03/17 00:32:15;;;;;;;7.63;4.75;;;6.80;99.40;;;;;;2091242;28;20502;-64
2024/03/17 00:33:16;;;;;;;5.95;4.60;;;6.80;99.40;;;;;;2091773;28;20043;-64
2024/03/17 00:34:17;;;;;;;8.82;5.20;;;6.80;99.40;;;;;;2091378;28;20024;-64
2024/03/17 00:35:21;;;;;;;7.97;4.82;;;6.80;99.40;;;;;;2092801;28;20102;-64
2024/03/17 00:36:21;;;;;;;7.07;4.68;;;6.80;99.50;;;;;;2092047;28;20020;-64
2024/03/17 00:37:23;;;;;;;5.00;4.30;;;6.80;99.50;;;;;;2089013;28;20035;-64
2024/03/17 00:38:23;;;;;;;5.70;4.00;;;6.80;99.50;;;;;;2091447;28;20409;-64
2024/03/17 00:39:24;;;;;;;7.53;4.43;;;6.80;99.50;;;;;;2090916;28;20037;-65
2024/03/17 00:40:24;;;;;;;8.43;4.57;;;6.70;99.40;;;;;;2095574;28;20033;-64
2024/03/17 00:41:25;;;;;;;5.38;4.38;;;6.70;99.40;;;;;;2098708;28;20079;-63
2024/03/17 00:42:26;;;;;;;5.57;3.85;;;6.70;99.40;;;;;;2092602;28;20021;-65
2024/03/17 00:43:26;;;;;;;8.30;4.38;;;6.70;99.40;;;;;;2093712;28;20107;-64
2024/03/17 00:44:27;;;;;;;10.05;4.97;;;6.70;99.40;;;;;;2094764;28;20036;-64
2024/03/17 00:45:27;;;;;;;7.43;4.40;;;6.70;99.50;;;;;;2093447;28;20035;-64
2024/03/17 00:46:30;;;;;;;6.75;4.40;;;6.70;99.50;;;;;;2095114;28;20433;-64
2024/03/17 00:47:34;;;;;;;8.85;4.88;;;6.60;99.50;;;;;;2092077;28;20021;-64
2024/03/17 00:48:34;;;;;;;9.02;4.28;;;6.60;99.50;;;;;;2094061;28;20075;-65
2024/03/17 00:49:35;;;;;;;9.75;4.53;;;6.60;99.60;;;;;;2093151;28;20021;-64
2024/03/17 00:50:35;;;;;;;7.25;4.43;;;6.60;99.60;;;;;;2093955;28;20032;-64
2024/03/17 00:51:36;;;;;;;7.72;5.00;;;6.60;99.60;;;;;;2093073;28;20433;-66
2024/03/17 00:52:37;;;;;;;6.60;4.47;;;6.60;99.60;;;;;;2093981;28;20040;-63
2024/03/17 00:53:38;;;;;;;7.30;3.97;;;6.60;99.70;;;;;;2092068;28;20039;-64
2024/03/17 00:54:38;;;;;;;6.28;4.40;;;6.60;99.70;;;;;;2094467;28;20102;-63
2024/03/17 00:55:39;;;;;;;5.68;4.50;;;6.50;99.70;;;;;;2092164;28;20083;-64
2024/03/17 00:56:40;;;;;;;5.15;4.57;;;6.50;99.70;;;;;;2094938;28;20032;-64
2024/03/17 00:57:41;;;;;;;6.70;4.20;;;6.50;99.80;;;;;;2091996;28;20067;-64
2024/03/17 00:58:42;;;;;;;6.95;4.25;;;6.50;99.80;;;;;;2094801;28;20025;-64
2024/03/17 00:59:46;;;;;;;5.97;4.18;;;6.50;99.80;;;;;;2091506;28;20066;-64
2024/03/17 01:00:50;;;;;;;6.15;4.15;;;6.50;99.80;;;;;;2093152;28;20025;-64
2024/03/17 01:01:50;;;;;;;11.95;4.60;;;6.50;99.80;;;;;;2095574;28;20028;-63
2024/03/17 01:02:51;;;;;;;5.57;4.05;;;6.40;99.80;;;;;;2094865;28;20087;-63
2024/03/17 01:03:52;;;;;;;6.15;4.07;;;6.40;99.90;;;;;;2093053;28;20025;-63
2024/03/17 01:04:53;;;;;;;4.40;3.90;;;6.40;99.90;;;;;;2094660;28;20025;-63
2024/03/17 01:05:54;;;;;;;5.13;3.88;;;6.40;99.90;;;;;;2094937;28;20414;-64
2024/03/17 01:06:54;;;;;;;6.40;4.32;;;6.40;99.90;;;;;;2093703;28;20028;-63
2024/03/17 01:07:55;;;;;;;5.00;4.00;;;6.40;99.90;;;;;;2094633;28;20116;-63
2024/03/17 01:08:56;;;;;;;5.65;3.78;;;6.30;99.90;;;;;;2093445;28;20400;-63
2024/03/17 01:09:56;;;;;;;5.63;4.68;;;6.30;99.90;;;;;;2091827;28;20038;-63
2024/03/17 01:10:59;;;;;;;6.15;4.10;;;6.30;99.90;;;;;;2092917;28;20123;-67
2024/03/17 01:12:00;;;;;;;7.82;4.10;;;6.30;99.90;;;;;;2091818;28;20485;-63
2024/03/17 01:13:00;;;;;;;7.10;4.43;;;6.30;99.90;;;;;;2094377;28;20612;-63
2024/03/17 01:14:01;;;;;;;5.78;4.20;;;6.30;99.90;;;;;;2094036;28;20029;-66
2024/03/17 01:15:06;;;;;;;7.05;4.28;;;6.30;99.80;;;;;;2094036;28;20032;-65
2024/03/17 01:16:06;;;;;;;4.72;3.30;;;6.30;99.80;;;;;;2093719;28;20039;-64
2024/03/17 01:17:08;;;;;;;8.45;3.72;;;6.20;99.80;;;;;;2093254;28;20462;-64
2024/03/17 01:18:11;;;;;;;5.00;3.67;;;6.20;99.80;;;;;;2092527;28;20071;-65
2024/03/17 01:19:12;;;;;;;6.38;4.32;;;6.20;99.80;;;;;;2094345;28;20055;-66
2024/03/17 01:20:13;;;;;;;8.38;4.00;;;6.20;99.90;;;;;;2093693;28;20736;-64
2024/03/17 01:21:13;;;;;;;5.13;4.00;;;6.20;99.90;;;;;;2091689;28;20025;-65
2024/03/17 01:22:22;;;;;;;5.50;4.20;;;6.20;99.90;;;;;;2093152;28;20063;-64
2024/03/17 01:23:23;;;;;;;6.32;3.70;;;6.20;99.90;;;;;;2093672;28;20016;-63
2024/03/17 01:24:24;;;;;;;8.18;3.67;;;6.20;99.90;;;;;;2092275;28;20025;-64
2024/03/17 01:25:25;;;;;;;4.72;4.15;;;6.20;99.90;;;;;;2094404;28;20120;-64
2024/03/17 01:26:26;;;;;;;4.88;3.83;;;6.20;99.90;;;;;;2092481;28;20017;-65
2024/03/17 01:27:26;;;;;;;5.10;3.92;;;6.20;99.90;;;;;;2091769;28;20663;-64
2024/03/17 01:28:27;;;;;;;5.45;4.35;;;6.20;99.90;;;;;;2092021;28;20096;-64
2024/03/17 01:29:27;;;;;;;4.55;3.60;;;6.10;99.90;;;;;;2092557;28;20039;-66
2024/03/17 01:30:28;;;;;;;5.13;3.72;;;6.10;99.90;;;;;;2092119;28;20032;-65
2024/03/17 01:31:30;;;;;;;6.80;4.22;;;6.10;99.90;;;;;;2092825;28;20025;-64
2024/03/17 01:32:31;;;;;;;7.47;3.85;;;6.10;99.90;;;;;;2094374;28;20025;-64
2024/03/17 01:33:31;;;;;;;7.85;4.43;;;6.10;99.90;;;;;;2094604;28;20024;-64
2024/03/17 01:34:33;;;;;;;4.07;3.58;;;6.10;99.90;;;;;;2093947;28;20404;-64
2024/03/17 01:35:33;;;;;;;6.00;3.67;;;6.00;99.90;;;;;;2092139;28;20025;-63
2024/03/17 01:36:34;;;;;;;6.65;4.35;;;6.00;99.90;;;;;;2090957;28;20058;-64
2024/03/17 01:37:37;;;;;;;7.40;4.40;;;6.00;99.90;;;;;;2092741;28;20058;-65
2024/03/17 01:38:39;;;;;;;5.85;4.43;;;6.00;99.90;;;;;;2101322;28;20459;-65
2024/03/17 01:39:45;;;;;;;3.90;3.50;;;6.00;99.90;;;;;;2099156;28;20025;-65
2024/03/17 01:40:46;;;;;;;6.25;3.95;;;6.00;99.90;;;;;;2093228;28;20143;-64
2024/03/17 01:41:47;;;;;;;7.00;4.50;;;6.00;99.90;;;;;;2092515;28;20381;-63
2024/03/17 01:42:48;;;;;;;8.98;5.05;;;6.00;99.90;;;;;;2093963;28;20024;-64
2024/03/17 01:43:48;;;;;;;7.10;3.72;;;6.00;99.90;;;;;;2093874;28;20033;-64
2024/03/17 01:44:50;;;;;;;6.78;3.85;;;6.00;99.90;;;;;;2095882;28;20032;-64
2024/03/17 01:45:51;;;;;;;4.78;4.18;;;6.00;99.90;;;;;;2094997;28;20459;-65
2024/03/17 01:46:51;;;;;;;6.30;3.38;;;6.00;99.90;;;;;;2093360;28;20567;-64
2024/03/17 01:47:59;;;;;;;6.28;4.18;;;6.00;99.90;;;;;;2092763;28;20029;-65
2024/03/17 01:49:00;;;;;;;6.15;3.92;;;6.00;99.90;;;;;;2092668;28;20041;-64
2024/03/17 01:50:01;;;;;;;6.35;4.43;;;5.90;99.90;;;;;;2092109;28;20036;-65
2024/03/17 01:51:02;;;;;;;8.32;3.80;;;5.90;99.90;;;;;;2092831;28;20025;-63
2024/03/17 01:52:05;;;;;;;6.32;3.85;;;5.90;99.90;;;;;;2092605;28;20090;-63
2024/03/17 01:53:08;;;;;;;5.60;4.10;;;5.90;99.90;;;;;;2096044;28;20052;-63
2024/03/17 01:54:09;;;;;;;5.32;3.53;;;5.90;99.90;;;;;;2093269;28;20865;-64
2024/03/17 01:55:09;;;;;;;6.55;4.30;;;5.90;99.90;;;;;;2093210;28;20514;-64
2024/03/17 01:56:11;;;;;;;5.72;4.28;;;5.90;99.90;;;;;;2092286;28;20146;-64
2024/03/17 01:57:13;;;;;;;7.50;4.05;;;5.90;99.90;;;;;;2092251;28;20033;-64
2024/03/17 01:58:13;;;;;;;4.78;3.63;;;5.90;99.90;;;;;;2093370;28;20125;-64
2024/03/17 01:59:14;;;;;;;10.10;4.35;;;5.90;99.90;;;;;;2091042;28;20059;-64
2024/03/17 02:00:15;;;;;;;6.20;4.43;;;5.90;99.90;;;;;;2093652;28;20023;-64
2024/03/17 02:01:16;;;;;;;8.27;4.30;;;5.90;99.90;;;;;;2095511;28;20025;-64
2024/03/17 02:02:16;;;;;;;7.18;3.72;;;5.90;99.90;;;;;;2094793;28;20050;-64
2024/03/17 02:03:20;;;;;;;7.03;4.03;;;5.90;99.90;;;;;;2091734;28;20096;-63
2024/03/17 02:04:22;;;;;;;5.40;3.72;;;5.90;99.90;;;;;;2093425;28;20024;-65
2024/03/17 02:05:22;;;;;;;7.05;4.20;;;5.90;99.90;;;;;;2091145;28;20435;-63
2024/03/17 02:06:26;;;;;;;8.48;3.88;;;5.90;99.90;;;;;;2091995;28;20028;-64
2024/03/17 02:07:26;;;;;;;6.70;4.35;;;5.90;99.90;;;;;;2095384;28;20358;-63
2024/03/17 02:08:27;;;;;;;4.82;3.88;;;5.90;99.90;;;;;;2092101;28;20064;-64
2024/03/17 02:09:28;;;;;;;5.65;4.20;;;5.80;99.90;;;;;;2093884;28;20028;-64
2024/03/17 02:10:29;;;;;;;6.95;4.20;;;5.80;99.90;;;;;;2093349;28;20040;-64
2024/03/17 02:11:32;;;;;;;7.13;4.50;;;5.80;99.90;;;;;;2092658;28;20049;-65
2024/03/17 02:12:36;;;;;;;12.45;4.63;;;5.90;99.90;;;;;;2092493;28;20035;-64
2024/03/17 02:13:36;;;;;;;6.60;3.75;;;5.90;99.90;;;;;;2092611;28;20114;-64
2024/03/17 02:14:37;;;;;;;6.60;3.78;;;5.80;99.90;;;;;;2092177;28;20039;-64
2024/03/17 02:15:38;;;;;;;8.52;4.53;;;5.80;99.90;;;;;;2093792;28;20384;-63
2024/03/17 02:16:39;;;;;;;9.77;4.55;;;5.80;99.90;;;;;;2092325;28;20033;-65
2024/03/17 02:17:39;;;;;;;10.95;4.35;;;5.80;99.90;;;;;;2094166;28;20029;-63
2024/03/17 02:18:40;;;;;;;9.60;4.35;;;5.90;99.90;;;;;;2096116;28;20036;-63
2024/03/17 02:19:43;;;;;;;10.52;4.93;;;5.90;99.90;;;;;;2092385;28;20029;-63
2024/03/17 02:20:58;;;;;;;6.53;4.70;;;5.90;99.90;;;;;;2093218;28;20085;-64
2024/03/17 02:21:59;;;;;;;9.10;4.90;;;5.80;99.90;;;;;;2093553;28;20055;-64
2024/03/17 02:22:59;;;;;;;11.48;5.35;;;5.80;99.90;;;;;;2092607;28;20135;-64
2024/03/17 02:24:00;;;;;;;8.25;4.70;;;5.80;99.90;;;;;;2094343;28;20031;-63
2024/03/17 02:25:02;;;;;;;9.30;4.88;;;5.80;99.90;;;;;;2092584;28;20060;-63
2024/03/17 02:26:03;;;;;;;9.18;5.47;;;5.80;99.90;;;;;;2094879;28;20036;-64
2024/03/17 02:27:04;;;;;;;11.27;4.65;;;5.80;99.90;;;;;;2093815;28;20021;-65
2024/03/17 02:28:04;;;;;;;14.45;5.28;;;5.80;99.90;;;;;;2091946;28;20025;-64
2024/03/17 02:29:05;;;;;;;8.98;4.68;;;5.80;99.90;;;;;;2095063;28;20044;-63
2024/03/17 02:30:09;;;;;;;9.98;5.00;;;5.80;99.90;;;;;;2092101;28;20021;-65
2024/03/17 02:31:14;;;;;;;10.40;4.85;;;5.80;99.90;;;;;;2092762;28;20094;-65
2024/03/17 02:32:15;;;;;;;8.50;4.93;;;5.80;99.90;;;;;;2093981;28;20048;-64
2024/03/17 02:33:15;;;;;;;8.77;5.78;;;5.80;99.90;;;;;;2094228;28;20028;-65
2024/03/17 02:34:16;;;;;;;10.52;5.25;;;5.80;99.90;;;;;;2093355;28;20388;-64
2024/03/17 02:35:17;;;;;;;8.50;4.78;;;5.80;99.90;;;;;;2092403;28;20025;-65
2024/03/17 02:36:17;;;;;;;9.07;4.97;;;5.80;99.90;;;;;;2091705;28;20540;-64
2024/03/17 02:37:18;;;;;;;7.22;4.68;;;5.80;99.90;;;;;;2092413;28;20503;-65
2024/03/17 02:39:33;;;;;;;12.15;4.70;;;5.80;99.90;;;;;;2092394;28;20118;-65
2024/03/17 02:39:39;;;;;;;9.73;5.90;;;5.80;99.90;;;;;;2091879;28;20864;-63
2024/03/17 02:40:40;;;;;;;8.82;4.68;;;5.70;99.90;;;;;;2093347;28;20362;-64
2024/03/17 02:41:43;;;;;;;8.65;4.95;;;5.80;99.90;;;;;;2095133;28;20017;-64
2024/03/17 02:42:47;;;;;;;10.82;5.00;;;5.80;99.90;;;;;;2096129;28;20055;-63
2024/03/17 02:43:48;;;;;;;10.55;5.00;;;5.80;99.90;;;;;;2094263;28;20400;-65
2024/03/17 02:44:48;;;;;;;9.23;4.80;;;5.80;99.90;;;;;;2092124;28;20115;-65
2024/03/17 02:45:49;;;;;;;8.50;4.78;;;5.80;99.90;;;;;;2090823;28;20115;-64
2024/03/17 02:46:49;;;;;;;10.52;5.30;;;5.80;99.90;;;;;;2092207;28;20025;-64
2024/03/17 02:47:50;;;;;;;9.60;5.15;;;5.80;99.90;;;;;;2093538;28;20088;-64
2024/03/17 02:48:52;;;;;;;9.30;4.90;;;5.80;99.90;;;;;;2092460;28;20024;-64
2024/03/17 02:49:54;;;;;;;10.68;5.28;;;5.80;99.90;;;;;;2092534;28;20112;-64
2024/03/17 02:50:56;;;;;;;12.13;4.72;;;5.80;99.90;;;;;;2094524;28;20036;-66
2024/03/17 02:51:57;;;;;;;8.90;4.88;;;5.80;99.90;;;;;;2091924;28;20051;-64
2024/03/17 02:52:57;;;;;;;7.15;4.65;;;5.80;99.90;;;;;;2094298;28;20028;-64
2024/03/17 02:53:59;;;;;;;8.98;4.93;;;5.80;99.90;;;;;;2093643;28;20476;-65
2024/03/17 02:55:00;;;;;;;8.20;5.05;;;5.80;99.90;;;;;;2091516;28;20167;-65
2024/03/17 02:56:06;;;;;;;9.93;5.10;;;5.80;99.90;;;;;;2092041;28;20107;-64
2024/03/17 02:57:07;;;;;;;8.10;4.82;;;5.80;99.90;;;;;;2092706;28;20043;-65
2024/03/17 02:58:07;;;;;;;8.93;4.45;;;5.90;99.90;;;;;;2096371;28;20056;-65
2024/03/17 02:59:10;;;;;;;6.25;4.32;;;5.80;99.90;;;;;;2095209;28;20044;-65
2024/03/17 03:00:12;;;;;;;7.80;4.50;;;5.80;99.90;;;;;;2090444;28;20090;-64
2024/03/17 03:01:14;;;;;;;8.52;4.95;;;5.80;99.90;;;;;;2093997;28;20362;-66
2024/03/17 03:02:15;;;;;;;7.75;5.32;;;5.90;99.90;;;;;;2091088;28;20470;-64
2024/03/17 03:03:16;;;;;;;8.10;4.35;;;5.90;99.90;;;;;;2091953;28;20028;-64
2024/03/17 03:04:16;;;;;;;9.05;4.25;;;5.80;99.90;;;;;;2095464;28;20031;-64
2024/03/17 03:05:17;;;;;;;6.85;4.22;;;5.90;99.90;;;;;;2091478;28;20433;-64
2024/03/17 03:06:19;;;;;;;6.85;4.63;;;5.90;99.90;;;;;;2092554;28;20021;-65
2024/03/17 03:07:19;;;;;;;9.23;5.13;;;5.90;99.90;;;;;;2094410;28;20031;-64
2024/03/17 03:08:23;;;;;;;11.73;5.40;;;5.90;99.90;;;;;;2093372;28;20095;-64
2024/03/17 03:09:31;;;;;;;6.50;4.30;;;5.90;99.90;;;;;;2092836;28;20033;-65
2024/03/17 03:10:32;;;;;;;8.57;4.30;;;5.90;99.90;;;;;;2092085;28;20024;-64
2024/03/17 03:11:35;;;;;;;7.20;4.35;;;5.90;99.90;;;;;;2091018;28;20020;-65
2024/03/17 03:12:39;;;;;;;6.88;4.20;;;5.90;99.90;;;;;;2093313;28;20020;-65
2024/03/17 03:13:43;;;;;;;6.00;4.05;;;5.90;99.90;;;;;;2089132;28;20037;-63
2024/03/17 03:14:46;;;;;;;8.10;4.40;;;5.90;99.90;;;;;;2092034;28;20108;-63
2024/03/17 03:15:48;;;;;;;11.38;4.63;;;5.90;99.90;;;;;;2091760;28;20040;-64
2024/03/17 03:16:49;;;;;;;5.95;4.30;;;5.90;99.90;;;;;;2090679;28;20039;-65
2024/03/17 03:17:49;;;;;;;9.75;4.43;;;5.90;99.90;;;;;;2091798;28;20037;-64
2024/03/17 03:18:50;;;;;;;6.50;4.13;;;5.90;99.90;;;;;;2092886;28;20431;-64
2024/03/17 03:19:51;;;;;;;6.35;4.00;;;5.90;99.90;;;;;;2090961;28;20079;-64
2024/03/17 03:20:55;;;;;;;8.90;4.40;;;5.90;99.90;;;;;;2092255;28;20020;-65
2024/03/17 03:21:56;;;;;;;8.13;4.20;;;6.00;99.90;;;;;;2092896;28;20047;-64
2024/03/17 03:22:57;;;;;;;6.57;3.97;;;6.00;99.90;;;;;;2092072;28;20052;-64
2024/03/17 03:23:57;;;;;;;8.32;4.60;;;6.00;99.90;;;;;;2092817;28;20029;-66
2024/03/17 03:24:58;;;;;;;10.55;4.70;;;6.00;99.90;;;;;;2092808;28;20061;-64
2024/03/17 03:26:03;;;;;;;8.35;4.85;;;6.00;99.90;;;;;;2091807;28;20116;-64
2024/03/17 03:27:04;;;;;;;10.98;4.18;;;6.00;99.90;;;;;;2092910;28;20025;-65
2024/03/17 03:28:07;;;;;;;5.13;4.03;;;6.00;99.90;;;;;;2090815;28;20025;-65
2024/03/17 03:29:12;;;;;;;6.90;3.80;;;6.00;99.90;;;;;;2091000;28;20021;-64
2024/03/17 03:30:12;;;;;;;7.25;4.20;;;6.00;99.90;;;;;;2099711;28;20024;-64
2024/03/17 03:31:13;;;;;;;7.18;3.88;;;6.00;99.90;;;;;;2098298;28;20017;-64
2024/03/17 03:32:17;;;;;;;6.40;4.68;;;6.00;99.90;;;;;;2091732;28;20028;-64
2024/03/17 03:33:19;;;;;;;6.95;4.32;;;6.00;99.90;;;;;;2092412;28;20028;-64
2024/03/17 03:34:24;;;;;;;8.02;4.65;;;6.00;99.90;;;;;;2091918;28;20454;-65
2024/03/17 03:35:28;;;;;;;8.15;4.45;;;6.00;99.90;;;;;;2091473;28;20021;-65
2024/03/17 03:36:36;;;;;;;8.30;4.65;;;6.00;99.90;;;;;;2091614;28;20021;-64
2024/03/17 03:37:37;;;;;;;9.25;4.63;;;6.00;99.90;;;;;;2091289;28;20108;-64
2024/03/17 03:38:38;;;;;;;8.82;4.22;;;6.10;99.90;;;;;;2091779;28;20029;-65
2024/03/17 03:39:38;;;;;;;7.97;4.28;;;6.00;99.90;;;;;;2092820;28;20854;-65
2024/03/17 03:40:40;;;;;;;9.20;4.25;;;6.00;99.90;;;;;;2092024;28;20051;-64
2024/03/17 03:41:41;;;;;;;6.82;4.68;;;6.00;99.90;;;;;;2092845;28;20047;-64
2024/03/17 03:42:45;;;;;;;6.05;4.40;;;6.10;99.90;;;;;;2091276;28;20041;-64
2024/03/17 03:43:47;;;;;;;8.75;4.70;;;6.10;99.90;;;;;;2092333;28;20137;-64
2024/03/17 03:44:49;;;;;;;8.35;4.20;;;6.10;99.90;;;;;;2091541;28;20023;-65
2024/03/17 03:45:49;;;;;;;11.63;5.38;;;6.10;99.90;;;;;;2092172;28;20536;-66
2024/03/17 03:46:50;;;;;;;5.60;3.95;;;6.10;99.90;;;;;;2092552;28;20609;-64
2024/03/17 03:47:51;;;;;;;7.75;4.32;;;6.10;99.90;;;;;;2092070;28;20037;-63
2024/03/17 03:48:52;;;;;;;7.40;4.63;;;6.10;99.90;;;;;;2094120;28;20412;-63
2024/03/17 03:49:53;;;;;;;8.45;4.70;;;6.10;99.90;;;;;;2092306;28;20464;-64
2024/03/17 03:50:57;;;;;;;8.38;4.63;;;6.10;99.90;;;;;;2091998;28;20021;-63
2024/03/17 03:51:57;;;;;;;6.90;4.45;;;6.10;99.90;;;;;;2092896;28;20059;-64
2024/03/17 03:52:58;;;;;;;7.65;4.40;;;6.00;99.90;;;;;;2093875;28;20033;-64
2024/03/17 03:53:58;;;;;;;7.35;4.13;;;6.00;99.90;;;;;;2092844;28;20074;-64
2024/03/17 03:54:59;;;;;;;5.95;4.45;;;6.10;99.90;;;;;;2094831;28;20637;-64
2024/03/17 03:56:05;;;;;;;6.78;4.10;;;6.10;99.90;;;;;;2095592;28;20032;-64
2024/03/17 03:57:06;;;;;;;8.88;4.70;;;6.00;99.90;;;;;;2092949;28;20032;-64
2024/03/17 03:58:07;;;;;;;8.55;4.80;;;6.00;99.90;;;;;;2090074;28;20032;-64
2024/03/17 03:59:07;;;;;;;9.60;4.55;;;6.00;99.90;;;;;;2093364;28;20408;-65
2024/03/17 04:00:15;;;;;;;6.32;4.55;;;6.00;99.90;;;;;;2088584;28;20033;-65
2024/03/17 04:01:21;;;;;;;7.88;4.30;;;6.10;99.90;;;;;;2091383;28;20911;-65
2024/03/17 04:02:22;;;;;;;16.60;5.55;;;6.00;99.90;;;;;;2094500;28;20116;-65
2024/03/17 04:03:23;;;;;;;6.93;4.40;;;6.00;99.90;;;;;;2095341;28;20393;-64
2024/03/17 04:04:24;;;;;;;6.50;4.50;;;6.00;99.90;;;;;;2090376;28;20058;-64
2024/03/17 04:05:25;;;;;;;7.38;4.68;;;6.00;99.90;;;;;;2094986;28;20769;-65
2024/03/17 04:06:26;;;;;;;6.82;4.50;;;6.00;99.90;;;;;;2092346;28;20111;-65
2024/03/17 04:07:27;;;;;;;10.77;5.22;;;6.00;99.90;;;;;;2091499;28;20130;-65
2024/03/17 04:08:27;;;;;;;9.43;4.72;;;6.00;99.90;;;;;;2091201;28;20028;-63
2024/03/17 04:09:29;;;;;;;6.32;4.65;;;6.00;99.90;;;;;;2092255;28;20040;-63
2024/03/17 04:10:29;;;;;;;5.85;4.47;;;6.00;99.90;;;;;;2091385;28;20086;-65
2024/03/17 04:11:30;;;;;;;8.15;5.22;;;6.00;99.90;;;;;;2091237;28;20029;-64
2024/03/17 04:12:31;;;;;;;9.15;4.72;;;6.00;99.90;;;;;;2093891;28;20029;-65
2024/03/17 04:13:33;;;;;;;10.95;4.85;;;6.00;99.90;;;;;;2092171;28;20037;-64
2024/03/17 04:14:33;;;;;;;5.82;4.47;;;6.00;99.90;;;;;;2097771;28;20035;-65
2024/03/17 04:15:34;;;;;;;8.57;4.93;;;6.00;99.90;;;;;;2099427;28;20048;-64
2024/03/17 04:16:35;;;;;;;6.85;4.70;;;6.00;99.90;;;;;;2091140;28;20021;-65
2024/03/17 04:17:37;;;;;;;5.78;4.55;;;6.10;99.90;;;;;;2092758;28;20021;-64
2024/03/17 04:18:37;;;;;;;9.38;4.97;;;6.00;99.90;;;;;;2090201;28;20036;-64
2024/03/17 04:19:38;;;;;;;10.25;4.65;;;6.10;99.90;;;;;;2093423;28;20052;-64
2024/03/17 04:20:40;;;;;;;8.38;5.05;;;6.00;99.90;;;;;;2091819;28;20021;-64
2024/03/17 04:21:41;;;;;;;9.05;4.88;;;6.10;99.90;;;;;;2092335;28;20020;-64
2024/03/17 04:22:45;;;;;;;10.30;5.68;;;6.00;99.90;;;;;;2091580;28;20024;-63
2024/03/17 04:23:45;;;;;;;9.60;5.85;;;6.00;99.90;;;;;;2092006;28;20417;-64
2024/03/17 04:24:47;;;;;;;10.13;5.85;;;6.10;99.90;;;;;;2091889;28;20090;-66
2024/03/17 04:25:51;;;;;;;9.70;5.60;;;6.00;99.90;;;;;;2091569;28;20013;-64
2024/03/17 04:26:51;;;;;;;8.95;5.50;;;6.10;99.90;;;;;;2092283;28;20066;-65
2024/03/17 04:27:52;;;;;;;8.85;5.22;;;6.10;99.90;;;;;;2093454;28;20918;-64
2024/03/17 04:28:52;;;;;;;7.35;5.75;;;6.10;99.90;;;;;;2091667;28;20485;-65
2024/03/17 04:29:54;;;;;;;10.73;5.68;;;6.10;99.90;;;;;;2092000;28;20032;-65
2024/03/17 04:31:08;;;;;;;6.32;5.60;;;6.10;99.90;;;;;;2090792;28;20036;-66
2024/03/17 04:32:11;;;;;;;8.40;5.72;;;6.10;99.90;;;;;;2090769;28;20044;-65
2024/03/17 04:33:12;;;;;;;6.40;5.63;;;6.10;99.90;;;;;;2091861;28;20032;-65
2024/03/17 04:34:12;;;;;;;8.45;5.88;;;6.10;99.90;;;;;;2092208;28;20040;-66
2024/03/17 04:35:13;;;;;;;9.77;5.95;;;6.10;99.90;;;;;;2092011;28;20029;-66
2024/03/17 04:36:14;;;;;;;10.10;6.75;;;6.10;99.90;;;;;;2091872;28;20100;-65
2024/03/17 04:37:15;;;;;;;9.88;6.40;;;6.20;99.90;;;;;;2091448;28;20036;-65
2024/03/17 04:38:19;;;;;;;9.23;5.65;;;6.10;99.90;;;;;;2098997;28;20032;-66
2024/03/17 04:39:20;;;;;;;11.07;7.00;;;6.20;99.90;;;;;;2084222;28;20286;-65
2024/03/17 04:40:22;;;;;;;15.52;7.18;;;6.20;99.90;;;;;;2085203;28;20173;-66
2024/03/17 04:41:24;;;;;;;12.00;6.90;;;6.20;99.90;;;;;;2090833;28;20073;-65
2024/03/17 04:42:24;;;;;;;12.40;6.13;;;6.20;99.90;;;;;;2092981;28;20013;-64
2024/03/17 04:43:25;;;;;;;11.77;7.00;;;6.20;99.90;;;;;;2091796;28;20031;-65
2024/03/17 04:44:25;;;;;;;10.98;7.38;;;6.20;99.90;;;;;;2091283;28;20032;-66
2024/03/17 04:45:26;;;;;;;13.40;7.82;;;6.20;99.90;;;;;;2090990;28;20666;-65
2024/03/17 04:46:27;;;;;;;12.38;7.35;;;6.20;99.90;;;;;;2091821;28;20032;-65
2024/03/17 04:47:27;;;;;;;13.20;7.03;;;6.20;99.90;;;;;;2092683;28;20393;-65
2024/03/17 04:48:28;;;;;;;11.48;7.30;;;6.20;99.90;;;;;;2091879;28;20567;-64
2024/03/17 04:49:28;;;;;;;11.57;7.22;;;6.30;99.90;;;;;;2091860;28;20032;-65
2024/03/17 04:50:31;;;;;;;11.40;6.50;;;6.30;99.90;;;;;;2093161;28;20392;-66
2024/03/17 04:51:33;;;;;;;12.70;7.80;;;6.30;99.90;;;;;;2089622;28;20435;-65
2024/03/17 04:52:33;;;;;;;11.93;7.70;;;6.30;99.90;;;;;;2091640;28;20064;-65
2024/03/17 04:53:34;;;;;;;11.63;7.03;;;6.30;99.90;;;;;;2091622;28;20958;-65
2024/03/17 04:54:34;;;;;;;12.10;8.20;;;6.30;99.90;;;;;;2093701;28;20024;-64
2024/03/17 04:55:35;;;;;;;13.07;8.55;;;6.30;99.90;;;;;;2094118;28;20052;-64
2024/03/17 04:56:36;;;;;;;13.43;8.02;;;6.40;99.90;;;;;;2093321;28;20060;-64
2024/03/17 04:57:36;;;;;;;10.35;7.25;;;6.40;99.90;;;;;;2091929;28;20032;-64
2024/03/17 04:58:37;;;;;;;13.48;7.68;;;6.40;99.90;;;;;;2093864;28;20112;-65
2024/03/17 04:59:38;;;;;;;15.65;8.18;;;6.40;99.90;;;;;;2091866;28;20046;-65
2024/03/17 05:00:39;;;;;;;12.60;7.55;;;6.40;99.90;;;;;;2092980;28;20035;-65
2024/03/17 05:01:40;;;;;;;11.35;7.57;;;6.40;99.90;;;;;;2091467;28;20079;-64
2024/03/17 05:02:40;;;;;;;14.52;7.78;;;6.40;99.90;;;;;;2091173;28;20092;-65
2024/03/17 05:03:41;;;;;;;13.52;7.15;;;6.40;99.90;;;;;;2091867;28;20021;-64
2024/03/17 05:04:42;;;;;;;10.52;7.82;;;6.40;99.90;;;;;;2091848;28;20048;-65
2024/03/17 05:05:42;;;;;;;10.32;7.30;;;6.40;99.90;;;;;;2090821;28;20023;-65
2024/03/17 05:06:46;;;;;;;10.88;7.32;;;6.40;99.90;;;;;;2091271;28;20021;-64
2024/03/17 05:07:47;;;;;;;13.20;7.80;;;6.40;99.90;;;;;;2092341;28;20037;-65
2024/03/17 05:08:47;;;;;;;10.80;8.02;;;6.40;99.90;;;;;;2092332;28;20021;-65
2024/03/17 05:09:49;;;;;;;12.77;7.90;;;6.40;99.90;;;;;;2091734;28;21013;-64
2024/03/17 05:10:59;;;;;;;10.95;7.30;;;6.40;99.90;;;;;;2091189;28;20025;-65
2024/03/17 05:12:00;;;;;;;11.25;7.80;;;6.40;99.90;;;;;;2090351;28;20099;-66
2024/03/17 05:13:00;;;;;;;12.88;7.88;;;6.40;99.90;;;;;;2090048;28;20036;-65
2024/03/17 05:14:01;;;;;;;10.95;7.68;;;6.40;99.90;;;;;;2091128;28;20036;-64
2024/03/17 05:15:01;;;;;;;14.85;8.07;;;6.40;99.90;;;;;;2090989;28;20021;-64
2024/03/17 05:16:08;;;;;;;13.02;8.25;;;6.40;99.90;;;;;;2091935;28;20067;-66
2024/03/17 05:17:09;;;;;;;12.73;8.15;;;6.40;99.90;;;;;;2091354;28;20680;-65
2024/03/17 05:18:10;;;;;;;14.30;8.70;;;6.40;99.90;;;;;;2091755;28;20032;-64
2024/03/17 05:19:11;;;;;;;10.43;7.68;;;6.40;99.90;;;;;;2091177;28;20045;-66
2024/03/17 05:20:14;;;;;;;11.82;7.25;;;6.40;99.90;;;;;;2093023;28;20017;-65
2024/03/17 05:21:14;;;;;;;12.07;7.30;;;6.40;99.90;;;;;;2090443;28;20471;-65
2024/03/17 05:22:18;;;;;;;12.27;7.75;;;6.40;99.90;;;;;;2089699;28;20096;-64
2024/03/17 05:23:18;;;;;;;10.88;7.82;;;6.40;99.90;;;;;;2096051;28;20023;-64
2024/03/17 05:24:19;;;;;;;12.63;7.68;;;6.40;99.90;;;;;;2085656;28;20059;-64